Time;durP1;ratioP1;P1;durP2;ratioP2;P2;SDS_P1;SDS_P2;PMS_P1;PMS_P2;Temp;Humidity;BMP_temperature;BMP_pressure;BME280_temperature;BME280_humidity;BME280_pressure;Samples;Min_cycle;Max_cycle;Signal;HPM_P1;HPM_P2
2022/04/22 00:01:29;;;;;;;8.93;5.57;;;12.00;59.00;;;;;;4736918;30;20109;-86
2022/04/22 00:03:55;;;;;;;7.88;5.95;;;11.90;59.10;;;;;;4737535;30;20449;-86
2022/04/22 00:06:21;;;;;;;7.88;5.60;;;11.90;59.20;;;;;;4736180;30;20057;-85
2022/04/22 00:08:47;;;;;;;10.55;5.70;;;11.80;59.20;;;;;;4720825;30;20099;-88
2022/04/22 00:11:31;;;;;;;9.30;6.10;;;11.70;59.30;;;;;;4736656;30;20041;-88
2022/04/22 00:13:59;;;;;;;10.48;5.78;;;11.70;59.40;;;;;;4736761;30;20083;-86
2022/04/22 00:16:27;;;;;;;8.05;5.97;;;11.80;59.70;;;;;;4720388;30;20067;-87
2022/04/22 00:18:53;;;;;;;9.98;6.07;;;11.60;59.70;;;;;;4720881;30;20048;-85
2022/04/22 00:21:19;;;;;;;8.75;6.65;;;11.60;59.90;;;;;;4735113;30;20060;-84
2022/04/22 00:23:45;;;;;;;10.93;7.00;;;11.50;60.10;;;;;;4720822;30;20064;-86
2022/04/22 00:26:11;;;;;;;11.45;6.57;;;11.50;60.20;;;;;;4720596;30;20175;-85
2022/04/22 00:28:37;;;;;;;13.80;7.03;;;11.50;60.50;;;;;;4736462;30;20124;-87
2022/04/22 00:31:03;;;;;;;10.05;6.45;;;11.40;60.60;;;;;;4720280;30;20052;-86
2022/04/22 00:33:29;;;;;;;11.82;7.38;;;11.30;60.60;;;;;;4720944;30;20063;-85
2022/04/22 00:35:54;;;;;;;14.10;7.53;;;11.30;60.80;;;;;;4720474;30;20056;-87
2022/04/22 00:38:20;;;;;;;14.93;7.78;;;11.20;61.00;;;;;;4736694;30;20092;-85
2022/04/22 00:40:46;;;;;;;10.10;7.00;;;11.20;61.20;;;;;;4718432;30;20096;-88
2022/04/22 00:43:23;;;;;;;11.85;8.20;;;11.20;61.50;;;;;;4711842;30;20056;-86
2022/04/22 00:45:50;;;;;;;12.55;7.90;;;11.10;62.10;;;;;;4735963;30;20096;-85
2022/04/22 00:48:17;;;;;;;15.80;7.95;;;11.10;61.80;;;;;;4720888;30;20114;-86
2022/04/22 00:50:43;;;;;;;11.43;8.00;;;11.10;62.00;;;;;;4736787;30;20485;-85
2022/04/22 00:53:10;;;;;;;9.52;6.40;;;11.00;62.00;;;;;;4736748;30;20108;-87
2022/04/22 00:55:38;;;;;;;12.70;8.23;;;11.00;62.20;;;;;;4736653;30;20060;-86
2022/04/22 00:58:04;;;;;;;12.88;7.40;;;11.00;62.40;;;;;;4719935;30;20122;-87
2022/04/22 01:00:31;;;;;;;12.82;8.05;;;10.90;62.50;;;;;;4719894;30;20067;-85
2022/04/22 01:02:57;;;;;;;13.52;7.82;;;10.90;62.70;;;;;;4735851;30;20051;-86
2022/04/22 01:10:53;;;;;;;10.43;7.10;;;10.80;62.80;;;;;;4733904;30;20088;-86
2022/04/22 01:13:19;;;;;;;11.80;7.22;;;10.80;62.80;;;;;;4719251;30;20133;-86
2022/04/22 01:15:46;;;;;;;12.90;7.63;;;10.80;62.90;;;;;;4735859;30;20152;-86
2022/04/22 01:18:12;;;;;;;12.70;7.22;;;10.70;63.00;;;;;;4719031;30;20551;-86
2022/04/22 01:20:37;;;;;;;12.95;7.55;;;10.70;63.20;;;;;;4735834;30;20048;-86
2022/04/22 01:23:03;;;;;;;13.00;7.22;;;10.70;63.30;;;;;;4735168;30;20510;-85
2022/04/22 01:25:29;;;;;;;12.30;7.80;;;10.60;63.20;;;;;;4719865;30;20060;-86
2022/04/22 01:27:56;;;;;;;11.48;8.20;;;10.60;63.50;;;;;;4735502;30;20053;-86
2022/04/22 01:30:24;;;;;;;12.38;7.20;;;10.60;63.60;;;;;;4735585;30;20080;-85
2022/04/22 01:32:56;;;;;;;10.18;7.82;;;10.60;63.80;;;;;;4735268;30;20044;-84
2022/04/22 01:35:24;;;;;;;13.77;8.02;;;10.60;63.90;;;;;;4735344;30;20056;-85
2022/04/22 01:37:50;;;;;;;10.25;7.60;;;10.60;64.40;;;;;;4734586;30;20074;-86
2022/04/22 01:40:16;;;;;;;16.63;8.77;;;10.50;64.00;;;;;;4735889;30;20052;-87
2022/04/22 01:42:43;;;;;;;13.63;7.88;;;10.50;64.50;;;;;;4735072;30;20520;-85
2022/04/22 01:45:09;;;;;;;12.77;8.10;;;10.50;64.10;;;;;;4735460;30;20053;-87
2022/04/22 01:47:35;;;;;;;16.30;9.45;;;10.40;64.40;;;;;;4735051;30;20107;-86
2022/04/22 01:50:02;;;;;;;13.13;8.65;;;10.40;64.60;;;;;;4735451;30;20036;-85
2022/04/22 01:52:28;;;;;;;14.05;8.75;;;10.40;64.60;;;;;;4739252;30;20052;-84
2022/04/22 01:54:56;;;;;;;14.10;9.48;;;10.40;64.60;;;;;;4740447;30;20071;-86
2022/04/22 01:57:22;;;;;;;17.10;10.10;;;10.30;64.80;;;;;;4720593;30;20098;-85
2022/04/22 01:59:49;;;;;;;15.82;10.38;;;10.30;64.80;;;;;;4719768;30;20068;-86
2022/04/22 02:02:16;;;;;;;15.85;10.13;;;10.20;64.90;;;;;;4719310;30;20053;-85
2022/04/22 02:04:42;;;;;;;16.92;9.75;;;10.20;65.00;;;;;;4719893;30;20056;-86
2022/04/22 02:07:08;;;;;;;16.10;10.30;;;10.20;65.10;;;;;;4734819;30;20048;-86
2022/04/22 02:09:34;;;;;;;19.33;10.60;;;10.20;65.20;;;;;;4735470;30;20047;-86
2022/04/22 02:11:59;;;;;;;16.77;9.70;;;10.10;65.20;;;;;;4735040;30;21722;-85
2022/04/22 02:14:25;;;;;;;19.98;10.68;;;10.10;65.40;;;;;;4735297;30;20059;-84
2022/04/22 02:16:54;;;;;;;18.13;10.13;;;10.10;65.40;;;;;;4719170;30;20048;-85
2022/04/22 02:19:20;;;;;;;16.52;9.70;;;10.10;65.60;;;;;;4722078;30;20571;-87
2022/04/22 02:21:46;;;;;;;15.95;10.50;;;10.00;65.60;;;;;;4722396;30;20053;-84
2022/04/22 02:24:11;;;;;;;15.05;9.52;;;10.00;65.80;;;;;;4738571;30;20091;-85
2022/04/22 02:29:22;;;;;;;17.75;10.38;;;10.00;65.90;;;;;;4738354;30;20052;-87
2022/04/22 02:31:51;;;;;;;17.10;9.65;;;9.90;66.40;;;;;;4738360;30;20046;-86
2022/04/22 02:34:17;;;;;;;17.52;10.98;;;9.90;66.10;;;;;;4737670;30;20052;-87
2022/04/22 02:36:44;;;;;;;16.65;10.02;;;9.90;66.30;;;;;;4740197;30;20094;-86
2022/04/22 02:39:09;;;;;;;15.32;9.70;;;9.80;66.30;;;;;;4726813;30;20059;-84
2022/04/22 02:47:04;;;;;;;18.35;10.82;;;9.70;66.40;;;;;;4741362;30;20055;-84
2022/04/22 02:49:29;;;;;;;17.08;9.95;;;9.80;66.60;;;;;;4741154;30;20108;-85
2022/04/22 02:51:55;;;;;;;15.27;9.95;;;9.70;66.60;;;;;;4726145;30;20506;-85
2022/04/22 02:54:20;;;;;;;14.70;9.90;;;9.70;66.70;;;;;;4725720;30;20059;-82
2022/04/22 02:56:47;;;;;;;15.13;10.32;;;9.70;66.70;;;;;;4744549;30;20049;-85
2022/04/22 02:59:13;;;;;;;19.25;10.52;;;9.60;66.60;;;;;;4726186;30;20434;-87
2022/04/22 03:01:43;;;;;;;14.48;10.02;;;9.60;66.60;;;;;;4741248;30;20082;-85
2022/04/22 03:04:09;;;;;;;15.85;10.45;;;9.60;66.60;;;;;;4725020;30;20068;-85
2022/04/22 03:06:35;;;;;;;15.73;9.80;;;9.60;66.80;;;;;;4722928;30;20531;-88
2022/04/22 03:09:01;;;;;;;16.83;9.57;;;9.60;66.80;;;;;;4738060;30;20122;-86
2022/04/22 03:11:27;;;;;;;16.95;9.02;;;9.60;66.70;;;;;;4743181;30;20393;-86
2022/04/22 03:13:54;;;;;;;16.75;10.63;;;9.50;66.60;;;;;;4741200;30;20052;-85
2022/04/22 03:16:23;;;;;;;16.17;9.73;;;9.50;66.60;;;;;;4744246;30;20497;-84
2022/04/22 03:18:49;;;;;;;17.63;9.70;;;9.50;66.60;;;;;;4722183;30;20059;-85
2022/04/22 03:21:14;;;;;;;13.27;8.38;;;9.50;66.60;;;;;;4738400;30;20052;-86
2022/04/22 03:23:40;;;;;;;17.63;9.35;;;9.40;66.60;;;;;;4741567;30;20382;-85
2022/04/22 03:26:06;;;;;;;19.42;10.07;;;9.40;66.60;;;;;;4746519;30;20374;-85
2022/04/22 03:28:31;;;;;;;16.80;9.50;;;9.40;66.30;;;;;;4746192;30;20044;-86
2022/04/22 03:30:57;;;;;;;13.48;8.68;;;9.40;66.60;;;;;;4746989;30;20144;-85
2022/04/22 03:33:23;;;;;;;14.77;8.85;;;9.40;66.50;;;;;;4721831;30;20044;-84
2022/04/22 03:35:50;;;;;;;16.70;9.63;;;9.30;66.50;;;;;;4721707;30;20067;-85
2022/04/22 03:38:20;;;;;;;15.00;9.02;;;9.30;66.50;;;;;;4737282;30;20088;-86
2022/04/22 03:40:50;;;;;;;12.90;8.82;;;9.30;66.50;;;;;;4728742;30;20056;-87
2022/04/22 03:43:16;;;;;;;14.45;7.95;;;9.30;66.50;;;;;;4721729;30;20059;-86
2022/04/22 03:45:42;;;;;;;14.60;8.27;;;9.30;66.40;;;;;;4736892;30;20099;-88
2022/04/22 03:48:09;;;;;;;14.82;8.45;;;9.30;66.30;;;;;;4721508;30;20102;-85
2022/04/22 03:50:36;;;;;;;10.63;7.20;;;9.30;66.20;;;;;;4735482;30;20065;-85
2022/04/22 03:53:03;;;;;;;12.65;7.15;;;9.30;66.10;;;;;;4737086;30;20045;-86
2022/04/22 03:55:29;;;;;;;11.82;7.18;;;9.30;66.10;;;;;;4735220;30;20080;-86
2022/04/22 03:58:12;;;;;;;11.82;7.80;;;9.20;65.90;;;;;;4736972;30;20448;-88
2022/04/22 04:00:49;;;;;;;10.17;7.30;;;9.20;65.80;;;;;;4736799;30;20060;-85
2022/04/22 04:03:23;;;;;;;11.50;6.72;;;9.20;65.90;;;;;;4721190;30;20323;-86
2022/04/22 04:05:51;;;;;;;11.73;7.07;;;9.20;65.80;;;;;;4720659;30;20056;-86
2022/04/22 04:08:19;;;;;;;10.75;6.90;;;9.10;65.60;;;;;;4721304;30;20057;-86
2022/04/22 04:16:15;;;;;;;10.60;6.30;;;9.00;65.40;;;;;;4735926;30;20415;-86
2022/04/22 04:18:41;;;;;;;11.15;6.10;;;9.00;65.40;;;;;;4721073;30;20063;-85
2022/04/22 04:23:54;;;;;;;12.88;6.88;;;9.00;65.30;;;;;;4736906;30;20139;-87
2022/04/22 04:26:24;;;;;;;10.75;5.88;;;8.90;65.20;;;;;;4736488;30;20056;-86
2022/04/22 04:28:51;;;;;;;8.27;5.38;;;9.00;65.30;;;;;;4736536;30;20106;-86
2022/04/22 04:31:18;;;;;;;14.15;6.22;;;8.90;65.30;;;;;;4735442;30;20371;-86
2022/04/22 04:33:44;;;;;;;9.43;5.75;;;8.90;65.30;;;;;;4736426;30;20486;-84
2022/04/22 04:36:10;;;;;;;12.88;6.45;;;8.90;65.50;;;;;;4719879;30;20095;-86
2022/04/22 04:38:41;;;;;;;9.85;5.55;;;8.90;65.30;;;;;;4736026;30;20072;-85
2022/04/22 04:41:08;;;;;;;11.55;6.00;;;9.00;65.40;;;;;;4735487;30;20440;-83
2022/04/22 04:43:39;;;;;;;11.43;5.60;;;8.90;65.30;;;;;;4735986;30;20052;-85
2022/04/22 04:46:06;;;;;;;10.38;5.55;;;8.90;65.20;;;;;;4720510;30;20052;-84
2022/04/22 04:48:33;;;;;;;9.30;5.07;;;8.90;65.20;;;;;;4736635;30;20059;-85
2022/04/22 04:50:59;;;;;;;11.60;5.97;;;9.00;65.30;;;;;;4736298;30;20052;-86
2022/04/22 04:53:25;;;;;;;8.50;5.72;;;9.00;65.20;;;;;;4736060;30;20498;-84
2022/04/22 04:55:52;;;;;;;9.50;5.72;;;9.00;65.30;;;;;;4720248;30;20044;-85
2022/04/22 04:58:21;;;;;;;8.02;5.38;;;9.00;65.20;;;;;;4717152;30;20100;-84
2022/04/22 05:00:48;;;;;;;8.63;4.95;;;9.00;65.20;;;;;;4718032;30;20490;-84
2022/04/22 05:03:14;;;;;;;10.35;5.05;;;9.00;65.40;;;;;;4718219;30;20068;-84
2022/04/22 05:05:39;;;;;;;7.05;4.43;;;9.00;65.30;;;;;;4718077;30;20056;-87
2022/04/22 05:08:06;;;;;;;8.77;5.05;;;9.00;65.20;;;;;;4717225;30;20064;-83
2022/04/22 05:10:34;;;;;;;9.63;5.22;;;9.00;65.10;;;;;;4718680;30;20056;-85
2022/04/22 05:13:00;;;;;;;9.27;4.93;;;9.10;65.10;;;;;;4719410;30;20064;-85
2022/04/22 05:15:27;;;;;;;9.18;4.88;;;9.10;65.10;;;;;;4717501;30;20057;-84
2022/04/22 05:17:54;;;;;;;7.07;4.68;;;9.10;64.90;;;;;;4718458;30;20057;-85
2022/04/22 05:20:23;;;;;;;7.90;5.22;;;9.10;64.70;;;;;;4717927;30;20105;-84
2022/04/22 05:22:48;;;;;;;8.00;4.80;;;9.10;64.60;;;;;;4718561;30;20395;-84
2022/04/22 05:25:15;;;;;;;7.85;4.88;;;9.10;64.40;;;;;;4717982;30;20055;-87
2022/04/22 05:27:41;;;;;;;8.43;4.85;;;9.20;64.50;;;;;;4716833;30;20053;-84
2022/04/22 05:32:53;;;;;;;9.23;5.15;;;9.20;64.40;;;;;;4719842;30;20545;-84
2022/04/22 05:35:21;;;;;;;10.25;4.95;;;9.20;64.80;;;;;;4718694;30;20126;-84
2022/04/22 05:37:58;;;;;;;8.77;4.50;;;9.20;64.20;;;;;;4705420;30;20525;-85
2022/04/22 05:40:28;;;;;;;7.43;4.82;;;9.30;64.00;;;;;;4717618;30;20048;-86
2022/04/22 05:42:55;;;;;;;7.28;4.53;;;9.30;63.90;;;;;;4730389;30;20061;-83
2022/04/22 05:45:22;;;;;;;8.55;4.40;;;9.30;63.80;;;;;;4716760;30;20049;-86
2022/04/22 05:47:51;;;;;;;7.50;4.50;;;9.30;63.70;;;;;;4717710;30;20056;-85
2022/04/22 05:50:18;;;;;;;8.13;4.88;;;9.40;63.90;;;;;;4717644;30;20132;-84
2022/04/22 05:52:43;;;;;;;6.47;4.72;;;9.40;64.00;;;;;;4715967;30;20103;-85
2022/04/22 05:55:16;;;;;;;9.52;5.05;;;9.40;63.80;;;;;;4716923;30;20057;-86
2022/04/22 05:57:43;;;;;;;8.90;5.22;;;9.50;63.70;;;;;;4714865;30;20477;-85
2022/04/22 06:00:12;;;;;;;6.38;3.92;;;9.60;63.40;;;;;;4735438;30;20102;-85
2022/04/22 06:02:41;;;;;;;7.03;4.50;;;9.70;63.40;;;;;;4733695;30;20056;-84
2022/04/22 06:05:15;;;;;;;7.32;4.55;;;9.90;63.40;;;;;;4735547;30;20131;-83
2022/04/22 06:07:42;;;;;;;7.57;3.97;;;10.00;63.10;;;;;;4734210;30;20044;-83
2022/04/22 06:12:53;;;;;;;7.15;3.85;;;10.30;62.50;;;;;;4733596;30;20437;-84
2022/04/22 06:15:20;;;;;;;6.45;4.05;;;10.50;61.90;;;;;;4735354;30;20054;-84
2022/04/22 06:17:46;;;;;;;7.55;4.60;;;10.70;61.70;;;;;;4734329;30;20111;-85
2022/04/22 06:20:12;;;;;;;8.02;4.07;;;10.90;60.80;;;;;;4719263;30;20501;-85
2022/04/22 06:22:38;;;;;;;7.28;3.97;;;11.10;59.80;;;;;;4733184;30;20040;-81
2022/04/22 06:25:04;;;;;;;6.60;3.78;;;11.20;59.50;;;;;;4735382;30;20103;-86
2022/04/22 06:27:34;;;;;;;4.70;3.63;;;11.40;59.20;;;;;;4718892;30;20052;-86
2022/04/22 06:30:05;;;;;;;4.47;3.08;;;11.50;58.70;;;;;;4719110;30;20049;-87
2022/04/22 06:32:31;;;;;;;6.13;3.60;;;11.70;58.40;;;;;;4719061;30;20498;-86
2022/04/22 06:34:57;;;;;;;5.63;3.00;;;11.80;58.20;;;;;;4734526;30;20080;-87
2022/04/22 06:37:24;;;;;;;4.80;3.55;;;12.00;57.80;;;;;;4718494;30;20052;-84
2022/04/22 06:48:03;;;;;;;5.78;3.38;;;12.60;55.70;;;;;;4735530;30;20151;-85
2022/04/22 06:50:30;;;;;;;6.40;3.03;;;12.80;55.50;;;;;;4738101;30;20048;-86
2022/04/22 06:52:55;;;;;;;6.38;3.53;;;12.90;55.20;;;;;;4721743;30;20056;-85
2022/04/22 06:55:22;;;;;;;6.15;4.03;;;13.00;54.90;;;;;;4736772;30;20052;-87
2022/04/22 06:57:49;;;;;;;5.97;3.65;;;13.20;55.00;;;;;;4722117;30;20053;-87
2022/04/22 07:00:18;;;;;;;6.35;3.90;;;13.40;54.40;;;;;;4737708;30;20417;-88
2022/04/22 07:02:45;;;;;;;4.78;3.67;;;13.50;53.80;;;;;;4737720;30;20037;-87
2022/04/22 07:05:12;;;;;;;6.15;3.45;;;13.70;53.60;;;;;;4723270;30;20424;-87
2022/04/22 07:07:38;;;;;;;6.30;3.78;;;13.80;53.80;;;;;;4737452;30;20131;-86
2022/04/22 07:10:04;;;;;;;6.80;3.30;;;14.00;53.50;;;;;;4737438;30;20167;-85
2022/04/22 07:12:32;;;;;;;8.20;4.00;;;14.00;52.90;;;;;;4737372;30;20044;-87
2022/04/22 07:15:08;;;;;;;6.78;3.85;;;14.20;52.60;;;;;;4737950;30;20103;-87
2022/04/22 07:17:35;;;;;;;6.15;3.80;;;14.20;51.90;;;;;;4721895;30;20081;-87
2022/04/22 07:20:13;;;;;;;6.25;3.45;;;14.30;51.90;;;;;;4726287;30;20130;-88
2022/04/22 07:22:40;;;;;;;6.63;3.63;;;14.30;51.50;;;;;;4726184;30;20060;-88
2022/04/22 07:25:07;;;;;;;12.18;4.88;;;14.30;51.20;;;;;;4740144;30;20056;-88
2022/04/22 07:27:35;;;;;;;9.00;3.97;;;14.30;51.70;;;;;;4740722;30;20041;-88
2022/04/22 07:30:02;;;;;;;4.20;3.08;;;14.30;51.90;;;;;;4721735;30;20060;-86
2022/04/22 07:32:28;;;;;;;6.95;3.20;;;14.50;51.90;;;;;;4722350;30;20677;-94
2022/04/22 07:34:54;;;;;;;6.80;3.40;;;14.50;51.50;;;;;;4738001;30;20140;-85
2022/04/22 07:37:21;;;;;;;6.70;3.90;;;14.50;50.50;;;;;;4738688;30;20058;-86
2022/04/22 07:39:47;;;;;;;7.95;4.20;;;14.30;51.00;;;;;;4737540;30;20048;-87
2022/04/22 07:42:19;;;;;;;6.45;3.53;;;14.30;51.60;;;;;;4739240;30;20040;-91
2022/04/22 07:47:34;;;;;;;7.00;3.63;;;14.30;51.00;;;;;;4737103;30;20053;-90
2022/04/22 07:50:08;;;;;;;7.30;3.78;;;14.20;51.00;;;;;;4721260;30;20106;-91
2022/04/22 07:52:34;;;;;;;6.47;3.30;;;14.20;51.40;;;;;;4737114;30;20044;-94
2022/04/22 07:55:00;;;;;;;6.47;3.72;;;14.20;51.00;;;;;;4739703;30;20072;-92
2022/04/22 07:57:27;;;;;;;5.90;3.28;;;14.30;51.00;;;;;;4726305;30;20060;-89
2022/04/22 07:59:53;;;;;;;7.28;3.55;;;14.20;51.10;;;;;;4720743;30;20061;-95
2022/04/22 08:02:19;;;;;;;7.53;3.30;;;14.30;51.10;;;;;;4721240;30;20414;-94
2022/04/22 08:04:45;;;;;;;5.72;3.38;;;14.30;51.30;;;;;;4721166;30;20049;-90
2022/04/22 08:07:11;;;;;;;4.65;2.58;;;14.20;51.40;;;;;;4720460;30;20158;-88
2022/04/22 08:09:37;;;;;;;5.97;2.97;;;14.30;50.60;;;;;;4709945;30;20057;-88
2022/04/22 08:12:03;;;;;;;5.47;2.83;;;14.20;50.50;;;;;;4722328;30;20073;-93
2022/04/22 08:14:28;;;;;;;4.90;3.10;;;14.30;51.10;;;;;;4722041;30;20060;-94
2022/04/22 08:16:55;;;;;;;10.30;3.10;;;14.30;51.30;;;;;;4716147;30;20041;-90
2022/04/22 08:19:20;;;;;;;5.15;3.17;;;14.40;50.80;;;;;;4712434;30;20095;-94
2022/04/22 08:21:46;;;;;;;5.10;2.78;;;14.40;50.50;;;;;;4720717;30;20045;-92
2022/04/22 08:24:12;;;;;;;7.25;2.70;;;14.50;51.00;;;;;;4720120;30;20082;-90
2022/04/22 08:26:38;;;;;;;5.05;2.63;;;14.60;50.50;;;;;;4721605;30;20128;-89
2022/04/22 08:29:04;;;;;;;7.05;2.40;;;14.60;50.50;;;;;;4722623;30;20053;-91
2022/04/22 08:31:30;;;;;;;5.13;2.67;;;14.50;50.30;;;;;;4723073;30;20112;-89
2022/04/22 08:33:57;;;;;;;6.22;3.22;;;14.50;50.40;;;;;;4730051;30;20074;-90
2022/04/22 08:36:24;;;;;;;3.40;2.20;;;14.50;50.50;;;;;;4734849;30;20045;-89
2022/04/22 08:38:49;;;;;;;4.50;2.70;;;14.50;50.70;;;;;;4727698;30;20064;-94
2022/04/22 08:41:17;;;;;;;4.05;2.50;;;14.60;50.80;;;;;;4722541;30;20057;-93
2022/04/22 08:43:43;;;;;;;4.80;2.60;;;14.70;50.20;;;;;;4720256;30;20136;-88
2022/04/22 08:52:19;;;;;;;;;;;15.10;49.80;;;;;;4721204;30;20136;-87
2022/04/22 08:54:48;;;;;;;5.32;2.13;;;15.00;49.40;;;;;;4717516;30;19931;-84
2022/04/22 08:57:14;;;;;;;6.50;2.33;;;15.00;49.30;;;;;;4720022;30;20445;-88
2022/04/22 09:00:12;;;;;;;5.30;2.00;;;15.10;49.30;;;;;;4716173;30;20517;-88
2022/04/22 09:02:38;;;;;;;5.45;2.20;;;15.10;48.20;;;;;;4715634;30;20049;-86
2022/04/22 09:05:06;;;;;;;4.38;1.70;;;15.10;48.50;;;;;;4713057;30;20053;-79
2022/04/22 09:07:32;;;;;;;6.05;2.33;;;15.10;47.50;;;;;;4713902;30;20096;-81
2022/04/22 09:09:58;;;;;;;5.63;1.83;;;15.10;47.60;;;;;;4711865;30;20451;-82
2022/04/22 09:12:25;;;;;;;6.50;2.53;;;15.10;47.80;;;;;;4717075;30;20127;-84
2022/04/22 09:14:54;;;;;;;5.97;2.60;;;15.10;47.90;;;;;;4716733;30;20103;-83
2022/04/22 09:17:24;;;;;;;5.25;2.00;;;15.20;48.40;;;;;;4718396;30;20045;-88
2022/04/22 09:19:53;;;;;;;3.88;2.00;;;15.30;48.90;;;;;;4717670;30;20056;-88
2022/04/22 09:22:27;;;;;;;8.07;2.80;;;15.50;48.70;;;;;;4716707;30;20123;-87
2022/04/22 09:24:58;;;;;;;4.38;2.45;;;15.60;48.70;;;;;;4717989;30;20057;-87
2022/04/22 09:27:38;;;;;;;4.45;2.03;;;15.80;47.80;;;;;;4717660;30;20049;-87
2022/04/22 09:30:09;;;;;;;6.68;2.42;;;15.90;47.50;;;;;;4713631;30;20060;-87
2022/04/22 09:32:39;;;;;;;4.93;1.98;;;16.00;46.70;;;;;;4714081;30;20080;-91
2022/04/22 09:35:17;;;;;;;4.25;2.20;;;16.00;46.30;;;;;;4716002;30;20052;-89
2022/04/22 09:43:23;;;;;;;4.70;2.10;;;16.30;44.90;;;;;;4718040;30;20064;-81
2022/04/22 09:45:53;;;;;;;3.45;1.73;;;16.30;45.00;;;;;;4710479;30;20510;-80
2022/04/22 09:48:20;;;;;;;6.85;2.75;;;16.30;44.00;;;;;;4714260;30;20140;-80
2022/04/22 09:50:54;;;;;;;4.78;2.53;;;16.30;45.10;;;;;;4718902;30;20089;-87
2022/04/22 09:53:33;;;;;;;3.58;2.10;;;16.50;45.30;;;;;;4713216;30;20052;-90
2022/04/22 09:56:08;;;;;;;5.20;2.30;;;16.50;43.60;;;;;;4717326;30;20051;-89
2022/04/22 09:58:34;;;;;;;4.40;2.05;;;16.50;43.80;;;;;;4716839;30;20148;-90
2022/04/22 10:01:19;;;;;;;6.63;2.05;;;16.50;45.30;;;;;;4718184;30;20132;-89
2022/04/22 10:03:45;;;;;;;;;;;16.60;43.90;;;;;;4727450;30;20053;-88
2022/04/22 10:06:12;;;;;;;4.25;2.05;;;16.50;43.90;;;;;;4714724;30;19934;-85
2022/04/22 10:08:39;;;;;;;4.75;1.92;;;16.50;44.70;;;;;;4716141;30;20057;-87
2022/04/22 10:11:06;;;;;;;6.90;2.20;;;16.60;44.60;;;;;;4718902;30;20053;-83
2022/04/22 10:13:41;;;;;;;4.70;2.65;;;16.60;44.30;;;;;;4717566;30;20053;-91
2022/04/22 10:16:11;;;;;;;3.95;2.30;;;16.70;43.70;;;;;;4717497;30;20133;-88
2022/04/22 10:18:38;;;;;;;4.10;2.40;;;16.70;44.20;;;;;;4730748;30;20049;-88
2022/04/22 10:21:04;;;;;;;4.45;1.95;;;16.80;44.50;;;;;;4715470;30;20045;-83
2022/04/22 10:23:31;;;;;;;4.65;2.38;;;16.80;43.00;;;;;;4717499;30;20045;-83
2022/04/22 10:25:58;;;;;;;6.93;2.08;;;16.90;43.30;;;;;;4717747;30;20045;-95
2022/04/22 10:28:26;;;;;;;5.95;1.98;;;16.90;42.60;;;;;;4716898;30;20049;-85
2022/04/22 10:30:54;;;;;;;4.28;2.17;;;16.90;43.10;;;;;;4716297;30;20083;-89
2022/04/22 10:33:25;;;;;;;4.25;2.30;;;17.00;43.30;;;;;;4716193;30;20158;-87
2022/04/22 10:36:02;;;;;;;6.00;2.20;;;17.00;44.50;;;;;;4716557;30;20068;-88
2022/04/22 10:38:29;;;;;;;5.38;2.38;;;17.00;41.90;;;;;;4711487;30;20057;-88
2022/04/22 10:40:55;;;;;;;5.43;1.88;;;17.10;43.10;;;;;;4719922;30;20607;-86
2022/04/22 10:43:24;;;;;;;6.85;2.05;;;17.10;42.30;;;;;;4719914;30;20061;-85
2022/04/22 10:48:39;;;;;;;4.40;2.20;;;17.10;42.60;;;;;;4709394;30;20098;-86
2022/04/22 10:51:07;;;;;;;2.90;1.80;;;17.10;42.20;;;;;;4719086;30;20248;-84
2022/04/22 10:53:46;;;;;;;6.95;2.55;;;17.10;42.60;;;;;;4718471;30;20064;-85
2022/04/22 10:56:28;;;;;;;4.20;2.10;;;17.20;42.80;;;;;;4719822;30;20080;-86
2022/04/22 10:59:12;;;;;;;7.05;2.70;;;17.30;43.70;;;;;;4725913;30;20065;-85
2022/04/22 11:01:40;;;;;;;4.50;2.45;;;17.30;43.80;;;;;;4721323;30;20056;-85
2022/04/22 11:04:17;;;;;;;7.60;2.88;;;17.40;44.00;;;;;;4720745;30;20056;-84
2022/04/22 11:06:43;;;;;;;3.85;2.72;;;17.40;43.00;;;;;;4736858;30;20095;-85
2022/04/22 11:09:09;;;;;;;4.47;2.90;;;17.50;42.80;;;;;;4722284;30;20401;-80
2022/04/22 11:11:45;;;;;;;6.88;3.08;;;17.50;43.10;;;;;;4722065;30;20418;-88
2022/04/22 11:14:19;;;;;;;5.53;2.65;;;17.50;43.70;;;;;;4721297;30;20060;-90
2022/04/22 11:16:45;;;;;;;5.25;3.13;;;17.60;44.00;;;;;;4722184;30;20159;-87
2022/04/22 11:19:17;;;;;;;3.75;2.55;;;17.70;43.70;;;;;;4740875;30;20060;-91
2022/04/22 11:21:44;;;;;;;5.05;3.08;;;17.70;44.10;;;;;;4739202;30;20056;-91
2022/04/22 11:24:21;;;;;;;4.70;2.85;;;17.80;43.50;;;;;;4722237;30;20036;-91
2022/04/22 11:26:48;;;;;;;4.15;2.95;;;17.90;44.60;;;;;;4737636;30;20052;-88
2022/04/22 11:29:15;;;;;;;5.38;3.38;;;18.00;43.70;;;;;;4738871;30;20476;-84
2022/04/22 11:31:49;;;;;;;5.63;3.13;;;18.00;43.70;;;;;;4738601;30;20052;-88
2022/04/22 11:34:17;;;;;;;4.95;3.08;;;18.20;43.80;;;;;;4720497;30;20068;-81
2022/04/22 11:36:48;;;;;;;5.00;2.97;;;18.10;43.90;;;;;;4721160;30;20097;-88
2022/04/22 11:39:23;;;;;;;4.07;2.80;;;18.20;43.10;;;;;;4736436;30;20069;-86
2022/04/22 11:41:53;;;;;;;5.55;3.33;;;18.20;43.20;;;;;;4738267;30;20036;-90
2022/04/22 11:44:20;;;;;;;5.53;3.17;;;18.20;43.70;;;;;;4723441;30;20068;-87
2022/04/22 11:46:46;;;;;;;3.97;2.88;;;18.20;44.00;;;;;;4738107;30;20071;-87
2022/04/22 11:49:13;;;;;;;5.90;3.10;;;18.30;43.60;;;;;;4724231;30;20049;-84
2022/04/22 11:51:39;;;;;;;7.00;4.05;;;18.20;44.00;;;;;;4720832;30;20183;-88
2022/04/22 11:54:05;;;;;;;6.38;2.85;;;18.30;44.90;;;;;;4722760;30;20072;-86
2022/04/22 11:56:31;;;;;;;6.07;3.15;;;18.30;44.20;;;;;;4720407;30;20093;-89
2022/04/22 11:58:57;;;;;;;6.47;3.17;;;18.40;44.20;;;;;;4736524;30;20071;-91
2022/04/22 12:07:02;;;;;;;5.93;2.92;;;18.40;42.50;;;;;;4741941;30;20060;-93
2022/04/22 12:09:28;;;;;;;5.88;3.03;;;18.40;41.70;;;;;;4736513;30;20051;-89
2022/04/22 12:11:57;;;;;;;6.38;3.30;;;18.30;42.00;;;;;;4746634;30;20055;-93
2022/04/22 12:14:24;;;;;;;9.30;3.42;;;18.30;43.30;;;;;;4742938;30;20100;-93
2022/04/22 12:17:37;;;;;;;6.18;3.55;;;18.40;42.40;;;;;;4726925;30;20052;-93
2022/04/22 12:20:06;;;;;;;7.40;3.28;;;18.30;43.30;;;;;;4742890;30;20063;-94
2022/04/22 12:22:33;;;;;;;7.75;3.45;;;18.30;43.20;;;;;;4734477;30;20510;-91
2022/04/22 12:25:14;;;;;;;17.92;5.28;;;18.40;42.80;;;;;;4723600;30;20127;-91
2022/04/22 12:27:41;;;;;;;4.80;3.25;;;18.40;42.60;;;;;;4740711;30;20067;-91
2022/04/22 12:30:12;;;;;;;6.35;4.13;;;18.40;42.20;;;;;;4724055;30;20064;-86
2022/04/22 12:32:39;;;;;;;6.93;3.58;;;18.40;42.70;;;;;;4736472;30;20101;-90
2022/04/22 12:35:17;;;;;;;6.25;3.88;;;18.40;42.50;;;;;;4737919;30;20056;-88
2022/04/22 12:37:54;;;;;;;6.45;3.58;;;18.50;42.10;;;;;;4735238;30;20170;-90
2022/04/22 12:40:26;;;;;;;5.03;3.50;;;18.40;41.50;;;;;;4719437;30;20409;-86
2022/04/22 12:42:52;;;;;;;9.15;3.83;;;18.40;41.40;;;;;;4720360;30;20049;-88
2022/04/22 12:54:07;;;;;;;7.07;4.40;;;18.10;41.80;;;;;;4733685;30;20143;-87
2022/04/22 12:56:34;;;;;;;9.15;4.55;;;18.00;41.60;;;;;;4719805;30;20082;-92
2022/04/22 12:59:04;;;;;;;5.18;3.55;;;17.90;41.60;;;;;;4721960;30;20124;-92
2022/04/22 13:01:38;;;;;;;9.82;4.30;;;18.00;41.40;;;;;;4719146;30;20053;-89
2022/04/22 13:04:23;;;;;;;7.10;5.00;;;18.00;42.70;;;;;;4720965;30;20056;-90
2022/04/22 13:06:49;;;;;;;7.15;4.32;;;18.00;42.40;;;;;;4736318;30;20501;-90
2022/04/22 13:09:17;;;;;;;7.90;3.92;;;18.00;42.50;;;;;;4721965;30;20053;-88
2022/04/22 13:11:43;;;;;;;7.05;5.00;;;18.00;42.20;;;;;;4716892;30;20139;-87
2022/04/22 13:14:10;;;;;;;8.48;4.53;;;17.90;41.70;;;;;;4730996;30;20135;-85
2022/04/22 13:16:36;;;;;;;7.50;4.07;;;17.90;42.10;;;;;;4718104;30;20057;-85
2022/04/22 13:19:02;;;;;;;9.05;4.60;;;17.80;42.00;;;;;;4734073;30;20048;-88
2022/04/22 13:21:28;;;;;;;6.82;4.30;;;17.80;43.10;;;;;;4715614;30;20048;-86
2022/04/22 13:23:55;;;;;;;7.53;4.50;;;17.90;43.40;;;;;;4732982;30;20056;-88
2022/04/22 13:26:22;;;;;;;8.93;4.53;;;17.80;43.50;;;;;;4718337;30;20071;-87
2022/04/22 13:28:48;;;;;;;6.15;4.32;;;17.90;43.50;;;;;;4718112;30;20420;-84
2022/04/22 13:31:53;;;;;;;8.93;5.00;;;17.80;43.30;;;;;;4730228;30;20140;-87
2022/04/22 13:34:19;;;;;;;8.77;5.40;;;17.80;44.00;;;;;;4731537;30;20543;-84
2022/04/22 13:36:44;;;;;;;7.88;5.43;;;17.70;43.60;;;;;;4733609;30;20057;-87
2022/04/22 13:39:10;;;;;;;9.07;5.28;;;17.70;44.00;;;;;;4732538;30;20071;-88
2022/04/22 13:41:36;;;;;;;7.18;5.28;;;17.70;43.80;;;;;;4733516;30;20060;-88
2022/04/22 13:44:01;;;;;;;10.18;6.25;;;17.70;43.80;;;;;;4733335;30;20051;-88
2022/04/22 13:54:40;;;;;;;8.55;5.20;;;17.90;43.80;;;;;;4730705;30;20057;-88
2022/04/22 13:57:06;;;;;;;7.30;5.40;;;17.90;42.80;;;;;;4723618;30;20071;-88
2022/04/22 13:59:33;;;;;;;8.10;5.32;;;17.90;42.90;;;;;;4732441;30;20064;-85
2022/04/22 14:01:59;;;;;;;13.77;6.20;;;18.00;43.70;;;;;;4733393;30;20159;-88
2022/04/22 14:04:24;;;;;;;7.72;5.93;;;17.90;42.70;;;;;;4716973;30;20437;-90
2022/04/22 14:06:50;;;;;;;7.10;5.45;;;17.90;43.00;;;;;;4719788;30;20075;-87